createdAt,value
2022-11-19T00:02:07.521Z,8.50
2022-11-19T00:04:35.912Z,8.20
2022-11-19T00:07:05.507Z,6.78
2022-11-19T00:09:33.656Z,8.27
2022-11-19T00:12:24.776Z,6.45
2022-11-19T00:14:52.916Z,6.85
2022-11-19T00:17:21.273Z,8.50
2022-11-19T00:19:49.476Z,14.25
2022-11-19T00:22:18.975Z,14.88
2022-11-19T00:24:47.117Z,10.88
2022-11-19T00:27:16.263Z,8.02
2022-11-19T00:29:44.434Z,7.38
2022-11-19T00:32:12.655Z,9.98
2022-11-19T00:34:40.812Z,7.72
2022-11-19T00:37:09.398Z,8.95
2022-11-19T00:39:39.392Z,9.05
2022-11-19T00:42:07.895Z,7.50
2022-11-19T00:44:37.570Z,10.07
2022-11-19T00:47:06.494Z,8.88
2022-11-19T00:49:34.666Z,8.23
2022-11-19T00:52:03.239Z,9.90
2022-11-19T00:54:31.469Z,9.07
2022-11-19T00:57:01.064Z,9.32
2022-11-19T00:59:29.644Z,10.90
2022-11-19T01:01:58.004Z,11.15
2022-11-19T01:04:26.218Z,9.15
2022-11-19T01:06:55.130Z,8.93
2022-11-19T01:09:24.736Z,9.68
2022-11-19T01:11:52.991Z,9.80
2022-11-19T01:14:22.638Z,9.05
2022-11-19T01:16:50.899Z,12.43
2022-11-19T01:19:19.440Z,13.57
2022-11-19T01:21:47.758Z,14.73
2022-11-19T01:24:16.030Z,14.18
2022-11-19T01:26:45.972Z,16.55
2022-11-19T01:29:14.796Z,12.98
2022-11-19T01:31:44.280Z,11.38
2022-11-19T01:34:12.498Z,13.07
2022-11-19T01:36:40.607Z,13.32
2022-11-19T01:39:08.738Z,14.93
2022-11-19T01:41:36.833Z,15.15
2022-11-19T01:44:06.867Z,12.80
2022-11-19T01:46:36.995Z,16.52
2022-11-19T01:49:09.937Z,12.77
2022-11-19T01:51:41.332Z,12.18
2022-11-19T01:54:13.677Z,15.85
2022-11-19T01:56:41.829Z,13.70
2022-11-19T01:59:15.100Z,13.88
2022-11-19T02:01:45.137Z,11.63
2022-11-19T02:04:17.401Z,10.35
2022-11-19T02:06:46.546Z,9.88
2022-11-19T02:09:14.738Z,9.73
2022-11-19T02:12:14.845Z,9.77
2022-11-19T02:15:20.787Z,10.43
2022-11-19T02:18:07.583Z,8.07
2022-11-19T02:21:05.494Z,8.93
2022-11-19T02:24:19.616Z,10.00
2022-11-19T02:27:24.410Z,11.07
2022-11-19T02:30:09.135Z,8.40
2022-11-19T02:32:58.041Z,7.47
2022-11-19T02:35:37.299Z,7.95
2022-11-19T02:38:14.562Z,11.63
2022-11-19T02:40:47.102Z,9.43
2022-11-19T02:43:20.126Z,8.90
2022-11-19T02:45:54.399Z,9.30
2022-11-19T02:48:24.932Z,10.07
2022-11-19T02:50:55.964Z,8.93
2022-11-19T02:53:24.277Z,11.52
2022-11-19T02:56:06.359Z,9.93
2022-11-19T02:58:56.490Z,10.00
2022-11-19T03:01:47.949Z,9.70
2022-11-19T03:04:31.229Z,8.18
2022-11-19T03:07:04.093Z,11.57
2022-11-19T03:09:34.943Z,9.00
2022-11-19T03:12:14.146Z,10.52
2022-11-19T03:15:06.856Z,8.77
2022-11-19T03:17:49.955Z,9.10
2022-11-19T03:20:24.227Z,5.93
2022-11-19T03:23:00.959Z,6.07
2022-11-19T03:25:36.554Z,5.40
2022-11-19T03:28:10.604Z,5.35
2022-11-19T03:30:41.908Z,6.20
2022-11-19T03:33:15.678Z,7.22
2022-11-19T03:35:48.675Z,6.75
2022-11-19T03:38:22.947Z,5.63
2022-11-19T03:40:53.166Z,5.15
2022-11-19T03:43:24.869Z,6.57
2022-11-19T03:45:54.897Z,5.10
2022-11-19T03:48:26.640Z,4.18
2022-11-19T03:50:58.921Z,4.72
2022-11-19T03:53:28.814Z,4.35
2022-11-19T03:55:59.767Z,4.00
2022-11-19T03:58:29.775Z,6.25
2022-11-19T04:00:58.046Z,4.28
2022-11-19T04:03:27.603Z,7.38
2022-11-19T04:05:55.823Z,7.53
2022-11-19T04:08:23.993Z,5.15
2022-11-19T04:10:52.143Z,4.50
2022-11-19T04:13:20.289Z,3.90
2022-11-19T04:15:48.467Z,4.13
2022-11-19T04:18:16.803Z,7.35
2022-11-19T04:20:46.777Z,3.30
2022-11-19T04:23:14.960Z,3.15
2022-11-19T04:25:47.156Z,3.33
2022-11-19T04:28:15.683Z,3.30
2022-11-19T04:30:44.303Z,3.40
2022-11-19T04:33:12.596Z,4.85
2022-11-19T04:35:40.846Z,3.80
2022-11-19T04:38:10.284Z,3.08
2022-11-19T04:40:39.055Z,5.10
2022-11-19T04:43:07.239Z,4.18
2022-11-19T04:45:35.575Z,4.32
2022-11-19T04:48:03.728Z,3.70
2022-11-19T04:50:31.874Z,5.00
2022-11-19T04:53:01.045Z,3.63
2022-11-19T04:55:30.633Z,2.88
2022-11-19T04:57:58.823Z,3.90
2022-11-19T05:00:27.132Z,4.25
2022-11-19T05:02:55.450Z,3.92
2022-11-19T05:05:23.681Z,3.50
2022-11-19T05:07:52.043Z,5.72
2022-11-19T05:10:20.571Z,4.43
2022-11-19T05:12:50.107Z,5.68
2022-11-19T05:15:18.378Z,4.47
2022-11-19T05:17:47.973Z,4.65
2022-11-19T05:20:16.885Z,5.80
2022-11-19T05:22:45.278Z,5.03
2022-11-19T05:25:13.591Z,5.25
2022-11-19T05:27:41.825Z,5.25
2022-11-19T05:30:12.956Z,7.75
2022-11-19T05:32:41.462Z,6.40
2022-11-19T05:35:10.688Z,6.55
2022-11-19T05:37:38.801Z,7.35
2022-11-19T05:40:08.269Z,8.18
2022-11-19T05:42:36.479Z,6.82
2022-11-19T05:45:05.313Z,7.80
2022-11-19T05:47:35.201Z,7.50
2022-11-19T05:50:03.495Z,7.28
2022-11-19T05:52:32.054Z,7.65
2022-11-19T05:55:00.638Z,8.63
2022-11-19T05:57:28.975Z,8.52
2022-11-19T05:59:57.151Z,8.10
2022-11-19T06:02:25.461Z,7.85
2022-11-19T06:04:55.648Z,8.15
2022-11-19T06:07:24.052Z,7.47
2022-11-19T06:09:52.471Z,9.52
2022-11-19T06:12:20.849Z,8.75
2022-11-19T06:14:49.113Z,8.88
2022-11-19T06:17:17.455Z,9.25
2022-11-19T06:19:47.971Z,8.55
2022-11-19T06:22:17.571Z,9.68
2022-11-19T06:24:45.726Z,9.50
2022-11-19T06:27:13.877Z,9.50
2022-11-19T06:29:42.118Z,10.15
2022-11-19T06:32:10.330Z,9.85
2022-11-19T06:34:38.655Z,10.90
2022-11-19T06:37:06.755Z,9.65
2022-11-19T06:39:36.384Z,11.05
2022-11-19T06:42:19.120Z,9.43
2022-11-19T06:44:47.369Z,10.75
2022-11-19T06:47:15.638Z,11.25
2022-11-19T06:49:43.913Z,11.40
2022-11-19T06:52:12.038Z,11.43
2022-11-19T06:54:43.223Z,9.98
2022-11-19T06:57:11.789Z,11.55
2022-11-19T06:59:39.979Z,10.43
2022-11-19T07:02:08.904Z,13.15
2022-11-19T07:04:37.577Z,11.77
2022-11-19T07:07:06.276Z,12.68
2022-11-19T07:09:34.518Z,13.95
2022-11-19T07:12:04.865Z,11.93
2022-11-19T07:14:32.989Z,13.85
2022-11-19T07:17:01.150Z,13.90
2022-11-19T07:19:29.629Z,13.70
2022-11-19T07:21:58.071Z,12.73
2022-11-19T07:24:26.781Z,13.75
2022-11-19T07:26:56.196Z,14.00
2022-11-19T07:29:25.734Z,12.57
2022-11-19T07:31:53.831Z,12.90
2022-11-19T07:34:22.273Z,14.35
2022-11-19T07:36:50.565Z,14.30
2022-11-19T07:39:19.192Z,14.15
2022-11-19T07:42:04.913Z,13.52
2022-11-19T07:44:36.023Z,17.08
2022-11-19T07:47:04.729Z,13.35
2022-11-19T07:49:32.890Z,15.32
2022-11-19T07:52:01.338Z,16.23
2022-11-19T07:54:29.504Z,16.13
2022-11-19T07:56:57.942Z,13.23
2022-11-19T07:59:27.173Z,16.58
2022-11-19T08:01:56.972Z,13.73
2022-11-19T08:04:25.179Z,14.13
2022-11-19T08:06:53.815Z,15.43
2022-11-19T08:09:22.226Z,15.05
2022-11-19T08:11:51.604Z,15.13
2022-11-19T08:14:19.842Z,14.50
2022-11-19T08:17:05.589Z,13.13
2022-11-19T08:19:35.215Z,13.50
2022-11-19T08:22:03.420Z,13.73
2022-11-19T08:24:31.512Z,13.48
2022-11-19T08:26:59.710Z,15.32
2022-11-19T08:29:28.063Z,13.25
2022-11-19T08:31:56.260Z,14.63
2022-11-19T08:34:25.354Z,13.43
2022-11-19T08:36:58.120Z,14.05
2022-11-19T08:39:26.461Z,13.32
2022-11-19T08:42:12.459Z,15.05
2022-11-19T08:44:40.717Z,13.68
2022-11-19T08:47:08.934Z,13.35
2022-11-19T08:49:37.236Z,14.55
2022-11-19T08:52:06.966Z,14.35
2022-11-19T08:54:35.221Z,13.52
2022-11-19T08:57:03.641Z,13.02
2022-11-19T08:59:31.805Z,13.98
2022-11-19T09:02:00.252Z,14.35
2022-11-19T09:04:28.494Z,14.13
2022-11-19T09:06:56.712Z,13.90
2022-11-19T09:09:26.302Z,17.20
2022-11-19T09:11:55.475Z,14.30
2022-11-19T09:14:32.819Z,14.95
2022-11-19T09:17:01.578Z,15.18
2022-11-19T09:19:29.774Z,14.32
2022-11-19T09:21:58.077Z,13.82
2022-11-19T09:24:27.796Z,14.88
2022-11-19T09:27:00.954Z,17.85
2022-11-19T09:29:30.335Z,15.95
2022-11-19T09:31:58.721Z,14.38
2022-11-19T09:34:26.888Z,15.80
2022-11-19T09:36:55.324Z,15.55
2022-11-19T09:39:23.579Z,15.68
2022-11-19T09:42:02.523Z,14.50
2022-11-19T09:44:42.287Z,15.10
2022-11-19T09:47:23.844Z,14.43
2022-11-19T09:50:02.949Z,16.98
2022-11-19T09:52:34.363Z,15.98
2022-11-19T09:55:03.428Z,13.32
2022-11-19T09:57:37.665Z,15.15
2022-11-19T10:00:10.294Z,13.50
2022-11-19T10:02:41.443Z,14.48
2022-11-19T10:05:14.697Z,19.73
2022-11-19T10:07:56.770Z,15.20
2022-11-19T10:10:34.007Z,17.55
2022-11-19T10:13:17.640Z,15.48
2022-11-19T10:16:06.340Z,15.95
2022-11-19T10:18:45.063Z,14.27
2022-11-19T10:21:22.638Z,15.60
2022-11-19T10:23:55.213Z,14.77
2022-11-19T10:26:31.824Z,14.85
2022-11-19T10:29:03.116Z,15.73
2022-11-19T10:31:38.538Z,14.32
2022-11-19T10:34:16.664Z,14.63
2022-11-19T10:36:48.985Z,14.10
2022-11-19T10:39:22.670Z,12.25
2022-11-19T10:41:56.598Z,15.57
2022-11-19T10:44:39.982Z,12.45
2022-11-19T10:47:23.834Z,14.32
2022-11-19T10:49:56.528Z,11.80
2022-11-19T10:52:30.203Z,13.93
2022-11-19T10:55:03.865Z,10.75
2022-11-19T10:57:34.113Z,12.48
2022-11-19T11:00:03.844Z,10.13
2022-11-19T11:02:35.213Z,9.63
2022-11-19T11:05:08.686Z,9.82
2022-11-19T11:07:51.742Z,25.60
2022-11-19T11:10:42.653Z,11.52
2022-11-19T11:13:55.029Z,9.88
2022-11-19T11:16:31.560Z,11.13
2022-11-19T11:19:02.372Z,10.20
2022-11-19T11:21:36.308Z,10.85
2022-11-19T11:24:06.968Z,10.70
2022-11-19T11:26:38.034Z,10.07
2022-11-19T11:29:24.890Z,11.50
2022-11-19T11:31:55.132Z,10.77
2022-11-19T11:34:32.519Z,12.00
2022-11-19T11:37:03.777Z,10.57
2022-11-19T11:39:35.411Z,9.98
2022-11-19T11:42:06.724Z,14.30
2022-11-19T11:44:40.438Z,10.25
2022-11-19T11:47:16.522Z,10.02
2022-11-19T11:49:50.072Z,10.45
2022-11-19T11:52:24.174Z,12.30
2022-11-19T11:54:58.437Z,9.45
2022-11-19T11:57:28.470Z,9.60
2022-11-19T11:59:59.316Z,9.13
2022-11-19T12:02:36.204Z,9.48
2022-11-19T12:05:07.977Z,9.80
2022-11-19T12:08:01.459Z,10.00
2022-11-19T12:10:35.535Z,10.10
2022-11-19T12:13:21.027Z,8.73
2022-11-19T12:15:58.854Z,10.55
2022-11-19T12:18:38.287Z,9.07
2022-11-19T12:21:11.894Z,8.68
2022-11-19T12:23:59.833Z,9.38
2022-11-19T12:26:39.791Z,9.48
2022-11-19T12:29:19.634Z,9.10
2022-11-19T12:32:03.027Z,9.05
2022-11-19T12:34:49.775Z,8.68
2022-11-19T12:37:38.365Z,9.00
2022-11-19T12:40:21.073Z,9.27
2022-11-19T12:42:57.652Z,9.48
2022-11-19T12:45:39.567Z,9.50
2022-11-19T12:48:25.725Z,9.32
2022-11-19T12:51:01.149Z,9.77
2022-11-19T12:53:46.401Z,10.55
2022-11-19T12:56:26.196Z,9.63
2022-11-19T12:59:04.449Z,10.98
2022-11-19T13:01:36.937Z,11.45
2022-11-19T13:04:12.374Z,9.32
2022-11-19T13:06:45.978Z,11.15
2022-11-19T13:09:19.362Z,12.20
2022-11-19T13:11:54.289Z,11.80
2022-11-19T13:14:31.677Z,12.35
2022-11-19T13:17:01.091Z,12.55
2022-11-19T13:19:32.478Z,10.23
2022-11-19T13:22:07.684Z,12.15
2022-11-19T13:24:40.604Z,11.50
2022-11-19T13:27:13.147Z,11.93
2022-11-19T13:29:45.664Z,14.18
2022-11-19T13:32:25.756Z,13.13
2022-11-19T13:35:14.625Z,12.80
2022-11-19T13:37:56.880Z,13.40
2022-11-19T13:40:31.842Z,11.70
2022-11-19T13:43:32.135Z,15.93
2022-11-19T13:46:07.962Z,14.63
2022-11-19T13:48:40.934Z,13.38
2022-11-19T13:51:23.589Z,14.05
2022-11-19T13:54:01.248Z,14.55
2022-11-19T13:56:43.805Z,13.77
2022-11-19T13:59:27.141Z,15.20
2022-11-19T14:02:20.542Z,15.45
2022-11-19T14:05:01.685Z,15.52
2022-11-19T14:07:44.932Z,15.07
2022-11-19T14:10:23.382Z,14.63
2022-11-19T14:13:29.081Z,13.82
2022-11-19T14:16:33.745Z,14.90
2022-11-19T14:19:24.269Z,13.60
2022-11-19T14:22:12.186Z,14.35
2022-11-19T14:25:15.641Z,14.15
2022-11-19T14:27:46.089Z,14.98
2022-11-19T14:30:21.922Z,15.10
2022-11-19T14:32:52.321Z,15.55
2022-11-19T14:35:36.803Z,17.58
2022-11-19T14:38:34.765Z,15.50
2022-11-19T14:41:31.579Z,18.77
2022-11-19T14:44:32.441Z,16.20
2022-11-19T14:47:45.445Z,16.98
2022-11-19T14:50:27.027Z,17.10
2022-11-19T14:52:57.116Z,16.38
2022-11-19T14:55:27.676Z,18.23
2022-11-19T14:58:02.777Z,15.60
2022-11-19T15:00:36.374Z,14.98
2022-11-19T15:03:07.640Z,16.02
2022-11-19T15:05:40.865Z,16.77
2022-11-19T15:08:46.796Z,17.77
2022-11-19T15:11:17.163Z,19.08
2022-11-19T15:13:46.158Z,16.92
2022-11-19T15:16:18.747Z,15.90
2022-11-19T15:19:05.282Z,18.95
2022-11-19T15:22:01.942Z,18.25
2022-11-19T15:24:45.799Z,17.35
2022-11-19T15:27:21.289Z,14.82
2022-11-19T15:30:10.630Z,19.45
2022-11-19T15:33:03.126Z,18.50
2022-11-19T15:35:46.558Z,17.52
2022-11-19T15:38:27.452Z,15.38
2022-11-19T15:40:59.477Z,18.52
2022-11-19T15:43:31.572Z,16.80
2022-11-19T15:46:06.146Z,16.85
2022-11-19T15:48:42.825Z,18.60
2022-11-19T15:51:15.936Z,17.73
2022-11-19T15:53:59.750Z,17.33
2022-11-19T15:56:36.314Z,18.60
2022-11-19T15:59:06.309Z,21.67
2022-11-19T16:01:35.870Z,19.73
2022-11-19T16:04:16.182Z,22.13
2022-11-19T16:06:45.844Z,22.58
2022-11-19T16:09:22.551Z,22.00
2022-11-19T16:12:10.603Z,21.85
2022-11-19T16:14:56.416Z,20.65
2022-11-19T16:17:43.016Z,21.92
2022-11-19T16:20:22.084Z,22.67
2022-11-19T16:22:58.340Z,23.98
2022-11-19T16:25:35.335Z,25.88
2022-11-19T16:28:06.522Z,24.83
2022-11-19T16:30:43.686Z,23.83
2022-11-19T16:33:21.824Z,23.08
2022-11-19T16:36:13.505Z,22.08
2022-11-19T16:38:44.534Z,22.38
2022-11-19T16:41:31.398Z,25.42
2022-11-19T16:44:06.961Z,25.27
2022-11-19T16:46:36.526Z,27.40
2022-11-19T16:49:11.761Z,29.50
2022-11-19T16:51:51.844Z,30.13
2022-11-19T16:54:45.521Z,27.00
2022-11-19T16:57:16.060Z,23.10
2022-11-19T16:59:50.572Z,23.98
2022-11-19T17:02:21.551Z,23.58
2022-11-19T17:04:53.658Z,24.45
2022-11-19T17:07:25.765Z,22.95
2022-11-19T17:10:30.446Z,25.58
2022-11-19T17:13:03.998Z,23.88
2022-11-19T17:15:38.603Z,25.42
2022-11-19T17:18:16.637Z,26.77
2022-11-19T17:21:01.065Z,24.58
2022-11-19T17:23:32.432Z,24.50
2022-11-19T17:26:02.930Z,24.20
2022-11-19T17:28:38.193Z,25.30
2022-11-19T17:31:16.308Z,26.10
2022-11-19T17:33:52.129Z,25.67
2022-11-19T17:36:25.800Z,30.70
2022-11-19T17:38:55.526Z,29.20
2022-11-19T17:41:42.828Z,28.35
2022-11-19T17:44:35.551Z,29.27
2022-11-19T17:47:07.379Z,26.40
2022-11-19T17:49:49.965Z,29.25
2022-11-19T17:52:23.404Z,27.08
2022-11-19T17:54:55.004Z,26.15
2022-11-19T17:57:23.627Z,26.45
2022-11-19T17:59:52.049Z,28.42
2022-11-19T18:02:21.902Z,29.90
2022-11-19T18:04:50.665Z,30.67
2022-11-19T18:07:19.041Z,28.33
2022-11-19T18:09:47.502Z,26.98
2022-11-19T18:12:19.893Z,26.67
2022-11-19T18:14:48.962Z,27.08
2022-11-19T18:17:17.905Z,28.00
2022-11-19T18:19:46.433Z,29.48
2022-11-19T18:22:19.144Z,28.95
2022-11-19T18:24:49.237Z,27.65
2022-11-19T18:27:19.390Z,26.88
2022-11-19T18:29:47.600Z,30.50
2022-11-19T18:32:17.045Z,29.70
2022-11-19T18:34:45.996Z,31.50
2022-11-19T18:37:16.704Z,28.70
2022-11-19T18:39:45.366Z,30.75
2022-11-19T18:42:13.651Z,32.17
2022-11-19T18:44:43.544Z,31.05
2022-11-19T18:47:14.196Z,29.85
2022-11-19T18:49:42.913Z,29.85
2022-11-19T18:52:14.899Z,32.60
2022-11-19T18:54:46.975Z,32.13
2022-11-19T18:57:15.485Z,30.35
2022-11-19T18:59:45.065Z,34.65
2022-11-19T19:02:13.470Z,34.17
2022-11-19T19:04:41.735Z,36.20
2022-11-19T19:07:10.305Z,31.60
2022-11-19T19:09:38.597Z,34.70
2022-11-19T19:12:20.442Z,34.17
2022-11-19T19:14:51.803Z,32.67
2022-11-19T19:17:20.986Z,30.08
2022-11-19T19:19:49.821Z,32.13
2022-11-19T19:22:18.629Z,33.72
2022-11-19T19:24:46.976Z,31.92
2022-11-19T19:27:15.827Z,31.95
2022-11-19T19:29:44.260Z,36.10
2022-11-19T19:32:13.804Z,35.20
2022-11-19T19:34:42.264Z,30.67
2022-11-19T19:37:10.563Z,31.00
2022-11-19T19:39:39.027Z,30.80
2022-11-19T19:42:07.510Z,29.60
2022-11-19T19:44:35.976Z,29.70
2022-11-19T19:47:04.620Z,33.22
2022-11-19T19:49:38.676Z,30.45
2022-11-19T19:52:07.518Z,28.45
2022-11-19T19:54:35.827Z,32.38
2022-11-19T19:57:04.293Z,32.30
2022-11-19T19:59:32.533Z,30.48
2022-11-19T20:02:02.674Z,32.50
2022-11-19T20:04:31.022Z,35.55
2022-11-19T20:07:00.837Z,32.58
2022-11-19T20:09:29.064Z,34.60
2022-11-19T20:11:57.342Z,40.30
2022-11-19T20:14:25.623Z,31.67
2022-11-19T20:16:53.971Z,34.38
2022-11-19T20:19:22.581Z,31.33
2022-11-19T20:21:52.153Z,27.83
2022-11-19T20:24:22.568Z,30.73
2022-11-19T20:26:50.781Z,31.40
2022-11-19T20:29:21.532Z,31.95
2022-11-19T20:31:50.365Z,32.67
2022-11-19T20:34:18.684Z,31.63
2022-11-19T20:36:47.410Z,31.42
2022-11-19T20:39:15.822Z,34.53
2022-11-19T20:42:02.864Z,31.80
2022-11-19T20:44:32.220Z,33.25
2022-11-19T20:47:02.159Z,38.42
2022-11-19T20:49:32.837Z,36.60
2022-11-19T20:52:01.176Z,34.50
2022-11-19T20:54:29.872Z,34.63
2022-11-19T20:56:59.852Z,31.40
2022-11-19T20:59:28.596Z,33.05
2022-11-19T21:01:58.038Z,32.83
2022-11-19T21:04:28.531Z,30.70
2022-11-19T21:06:56.925Z,33.42
2022-11-19T21:09:25.698Z,32.45
2022-11-19T21:11:55.791Z,32.55
2022-11-19T21:14:25.554Z,32.20
2022-11-19T21:16:53.694Z,30.13
2022-11-19T21:19:22.379Z,31.98
2022-11-19T21:21:56.183Z,34.30
2022-11-19T21:24:24.572Z,32.92
2022-11-19T21:26:52.703Z,33.30
2022-11-19T21:29:27.628Z,32.08
2022-11-19T21:31:56.249Z,33.38
2022-11-19T21:34:24.857Z,39.65
2022-11-19T21:36:53.236Z,34.15
2022-11-19T21:39:21.752Z,31.80
2022-11-19T21:41:50.492Z,34.63
2022-11-19T21:44:21.741Z,31.13
2022-11-19T21:46:51.718Z,31.45
2022-11-19T21:49:20.519Z,31.35
2022-11-19T21:51:49.264Z,32.83
2022-11-19T21:54:18.838Z,28.38
2022-11-19T21:56:47.261Z,30.25
2022-11-19T21:59:15.687Z,29.80
2022-11-19T22:01:44.248Z,30.35
2022-11-19T22:04:15.413Z,32.92
2022-11-19T22:06:43.941Z,29.30
2022-11-19T22:09:12.263Z,40.03
2022-11-19T22:11:40.687Z,34.38
2022-11-19T22:14:10.680Z,29.85
2022-11-19T22:16:40.845Z,31.23
2022-11-19T22:19:11.313Z,27.52
2022-11-19T22:21:41.749Z,26.83
2022-11-19T22:24:10.479Z,31.20
2022-11-19T22:26:38.842Z,29.30
2022-11-19T22:29:07.484Z,27.73
2022-11-19T22:31:35.672Z,28.15
2022-11-19T22:34:03.839Z,28.58
2022-11-19T22:36:33.687Z,29.80
2022-11-19T22:39:03.483Z,27.45
2022-11-19T22:41:37.304Z,27.92
2022-11-19T22:44:06.340Z,28.83
2022-11-19T22:46:34.707Z,31.67
2022-11-19T22:49:14.138Z,27.95
2022-11-19T22:51:45.140Z,30.73
2022-11-19T22:54:15.364Z,28.95
2022-11-19T22:56:43.577Z,28.17
2022-11-19T22:59:12.173Z,27.25
2022-11-19T23:01:40.474Z,29.95
2022-11-19T23:04:09.603Z,31.10
2022-11-19T23:06:38.391Z,28.98
2022-11-19T23:09:08.464Z,32.38
2022-11-19T23:11:52.000Z,33.03
2022-11-19T23:14:20.636Z,33.25
2022-11-19T23:16:48.855Z,30.92
2022-11-19T23:19:19.234Z,33.67
2022-11-19T23:21:48.155Z,29.52
2022-11-19T23:24:17.341Z,31.80
2022-11-19T23:26:46.910Z,31.30
2022-11-19T23:29:15.074Z,34.10
2022-11-19T23:31:43.189Z,32.72
2022-11-19T23:34:11.819Z,30.77
2022-11-19T23:36:41.614Z,31.30
2022-11-19T23:39:15.084Z,31.77
2022-11-19T23:41:44.038Z,31.45
2022-11-19T23:44:13.599Z,33.47
2022-11-19T23:46:42.027Z,31.23
2022-11-19T23:49:11.973Z,33.05
2022-11-19T23:51:41.145Z,32.08
2022-11-19T23:54:09.264Z,31.33
2022-11-19T23:56:37.479Z,32.53
2022-11-19T23:59:06.511Z,32.30
